Time,TemperatureF,DewpointF,PressureIn,WindDirection,WindDirectionDegrees,WindSpeedMPH,WindSpeedGustMPH,Humidity,HourlyPrecipIn,Conditions,Clouds,dailyrainin,SolarRadiationWatts/m^2,SoftwareType,DateUTC
2013-11-10 00:00:00,44.0,17.0,-100.00,SSE,162,1.0,4.0,33,0.00,,,0.00,0.000000,,2013-11-10 07:00:00,
2013-11-10 00:43:00,44.0,17.0,-100.00,SSE,162,1.0,4.0,33,0.00,,,0.00,0.000000,,2013-11-10 07:43:00,
2013-11-10 00:52:00,44.0,17.0,-100.00,SSE,162,1.0,4.0,33,0.00,,,0.00,0.000000,,2013-11-10 07:52:00,
2013-11-10 01:00:00,43.0,17.0,-100.00,SSE,155,2.0,3.0,34,0.00,,,0.00,0.000000,,2013-11-10 08:00:00,
2013-11-10 01:22:00,43.0,17.0,-100.00,SSE,155,2.0,3.0,34,0.00,,,0.00,0.000000,,2013-11-10 08:22:00,
2013-11-10 01:32:00,43.0,17.0,-100.00,SSE,155,2.0,3.0,34,0.00,,,0.00,0.000000,,2013-11-10 08:32:00,
2013-11-10 01:42:00,43.0,17.0,-100.00,SSE,155,2.0,3.0,34,0.00,,,0.00,0.000000,,2013-11-10 08:42:00,
2013-11-10 01:52:00,43.0,17.0,-100.00,SSE,155,2.0,3.0,34,0.00,,,0.00,0.000000,,2013-11-10 08:52:00,
2013-11-10 02:00:00,45.0,15.0,-100.00,SE,143,2.0,3.0,30,0.00,,,-99.99,0.000000,,2013-11-10 09:00:00,
2013-11-10 02:22:00,45.0,15.0,-100.00,SE,143,2.0,3.0,30,0.00,,,-99.99,0.000000,,2013-11-10 09:22:00,
2013-11-10 02:33:00,45.0,15.0,-100.00,SE,143,2.0,3.0,30,0.00,,,-99.99,0.000000,,2013-11-10 09:33:00,
2013-11-10 02:42:00,45.0,15.0,-100.00,SE,143,2.0,3.0,30,0.00,,,-99.99,0.000000,,2013-11-10 09:42:00,
2013-11-10 02:53:00,45.0,15.0,-100.00,SE,143,2.0,3.0,30,0.00,,,-99.99,0.000000,,2013-11-10 09:53:00,
2013-11-10 03:00:00,44.0,16.0,-100.00,SSE,162,2.0,4.0,32,-99.99,,,0.00,0.000000,,2013-11-10 10:00:00,
2013-11-10 03:23:00,44.0,16.0,-100.00,SSE,162,2.0,4.0,32,-99.99,,,0.00,0.000000,,2013-11-10 10:23:00,
2013-11-10 03:33:00,44.0,16.0,-100.00,SSE,162,2.0,4.0,32,-99.99,,,0.00,0.000000,,2013-11-10 10:33:00,
2013-11-10 03:42:00,44.0,16.0,-100.00,SSE,162,2.0,4.0,32,-99.99,,,0.00,0.000000,,2013-11-10 10:42:00,
2013-11-10 03:52:00,44.0,16.0,-100.00,SSE,162,2.0,4.0,32,-99.99,,,0.00,0.000000,,2013-11-10 10:52:00,
2013-11-10 04:00:00,44.0,17.0,-100.00,NW,307,0.0,2.0,33,-99.99,,,-99.99,0.000000,,2013-11-10 11:00:00,
2013-11-10 04:43:00,44.0,17.0,-100.00,NW,307,0.0,2.0,33,-99.99,,,-99.99,0.000000,,2013-11-10 11:43:00,
2013-11-10 04:52:00,44.0,17.0,-100.00,NW,307,0.0,2.0,33,-99.99,,,-99.99,0.000000,,2013-11-10 11:52:00,
2013-11-10 08:00:00,42.0,16.0,-100.00,ENE,71,3.0,4.0,34,-99.99,,,0.00,13.000000,,2013-11-10 15:00:00,
2013-11-10 08:43:00,42.0,16.0,-100.00,ENE,71,3.0,4.0,34,-99.99,,,0.00,13.000000,,2013-11-10 15:43:00,
2013-11-10 08:53:00,42.0,16.0,-100.00,ENE,71,3.0,4.0,34,-99.99,,,0.00,13.000000,,2013-11-10 15:53:00,
2013-11-10 09:00:00,53.0,17.0,-100.00,East,99,0.0,4.0,24,0.00,,,0.00,105.000000,,2013-11-10 16:00:00,
2013-11-10 09:42:00,53.0,17.0,-100.00,East,99,0.0,4.0,24,0.00,,,0.00,105.000000,,2013-11-10 16:42:00,
2013-11-10 09:53:00,53.0,17.0,-100.00,East,99,0.0,4.0,24,0.00,,,0.00,105.000000,,2013-11-10 16:53:00,
2013-11-10 10:00:00,56.0,20.0,-100.00,South,170,3.0,6.0,24,0.00,,,0.00,444.000000,,2013-11-10 17:00:00,
2013-11-10 10:23:00,56.0,20.0,-100.00,South,170,3.0,6.0,24,0.00,,,0.00,444.000000,,2013-11-10 17:23:00,
2013-11-10 10:34:00,56.0,20.0,-100.00,South,170,3.0,6.0,24,0.00,,,0.00,444.000000,,2013-11-10 17:34:00,
2013-11-10 10:43:00,56.0,20.0,-100.00,South,170,3.0,6.0,24,0.00,,,0.00,444.000000,,2013-11-10 17:43:00,
2013-11-10 10:52:00,56.0,20.0,-100.00,South,170,3.0,6.0,24,0.00,,,0.00,444.000000,,2013-11-10 17:52:00,
2013-11-10 11:00:00,58.0,19.0,-100.00,South,176,4.0,7.0,22,0.00,,,0.00,598.000000,,2013-11-10 18:00:00,
2013-11-10 11:24:00,58.0,19.0,-100.00,South,176,4.0,7.0,22,0.00,,,0.00,598.000000,,2013-11-10 18:24:00,
2013-11-10 11:32:00,58.0,19.0,-100.00,South,176,4.0,7.0,22,0.00,,,0.00,598.000000,,2013-11-10 18:32:00,
2013-11-10 11:42:00,58.0,19.0,-100.00,South,176,4.0,7.0,22,0.00,,,0.00,598.000000,,2013-11-10 18:42:00,
2013-11-10 11:52:00,58.0,19.0,-100.00,South,176,4.0,7.0,22,0.00,,,0.00,598.000000,,2013-11-10 18:52:00,
2013-11-10 12:00:00,60.0,20.0,-100.00,SSE,163,3.0,7.0,21,0.00,,,0.00,709.000000,,2013-11-10 19:00:00,
2013-11-10 12:22:00,60.0,20.0,-100.00,SSE,163,3.0,7.0,21,0.00,,,0.00,709.000000,,2013-11-10 19:22:00,
2013-11-10 12:32:00,60.0,20.0,-100.00,SSE,163,3.0,7.0,21,0.00,,,0.00,709.000000,,2013-11-10 19:32:00,
2013-11-10 12:42:00,60.0,20.0,-100.00,SSE,163,3.0,7.0,21,0.00,,,0.00,709.000000,,2013-11-10 19:42:00,
2013-11-10 12:52:00,60.0,20.0,-100.00,SSE,163,3.0,7.0,21,0.00,,,0.00,709.000000,,2013-11-10 19:52:00,
2013-11-10 13:00:00,61.0,20.0,-100.00,SSE,165,3.0,8.0,20,0.00,,,0.00,753.000000,,2013-11-10 20:00:00,
2013-11-10 13:22:00,61.0,20.0,-100.00,SSE,165,3.0,8.0,20,0.00,,,0.00,753.000000,,2013-11-10 20:22:00,
2013-11-10 13:32:00,61.0,20.0,-100.00,SSE,165,3.0,8.0,20,0.00,,,0.00,753.000000,,2013-11-10 20:32:00,
2013-11-10 13:42:00,61.0,20.0,-100.00,SSE,165,3.0,8.0,20,0.00,,,0.00,753.000000,,2013-11-10 20:42:00,
2013-11-10 13:52:00,61.0,20.0,-100.00,SSE,165,3.0,8.0,20,0.00,,,0.00,753.000000,,2013-11-10 20:52:00,
2013-11-10 14:00:00,61.0,21.0,-100.00,SSW,198,4.0,9.0,21,0.00,,,0.00,696.000000,,2013-11-10 21:00:00,
2013-11-10 14:22:00,61.0,21.0,-100.00,SSW,198,4.0,9.0,21,0.00,,,0.00,696.000000,,2013-11-10 21:22:00,
2013-11-10 14:33:00,61.0,21.0,-100.00,SSW,198,4.0,9.0,21,0.00,,,0.00,696.000000,,2013-11-10 21:33:00,
2013-11-10 14:43:00,61.0,21.0,-100.00,SSW,198,4.0,9.0,21,0.00,,,0.00,696.000000,,2013-11-10 21:43:00,
2013-11-10 14:55:00,61.0,21.0,-100.00,SSW,198,4.0,9.0,21,0.00,,,0.00,696.000000,,2013-11-10 21:55:00,
2013-11-10 15:00:00,61.0,21.0,-100.00,SSW,210,5.0,9.0,21,0.00,,,0.00,567.000000,,2013-11-10 22:00:00,
2013-11-10 15:24:00,61.0,21.0,-100.00,SSW,210,5.0,9.0,21,0.00,,,0.00,567.000000,,2013-11-10 22:24:00,
2013-11-10 15:34:00,61.0,21.0,-100.00,SSW,210,5.0,9.0,21,0.00,,,0.00,567.000000,,2013-11-10 22:34:00,
2013-11-10 15:43:00,61.0,21.0,-100.00,SSW,210,5.0,9.0,21,0.00,,,0.00,567.000000,,2013-11-10 22:43:00,
2013-11-10 15:54:00,61.0,21.0,-100.00,SSW,210,5.0,9.0,21,0.00,,,0.00,567.000000,,2013-11-10 22:54:00,
2013-11-10 16:00:00,60.0,20.0,-100.00,SSW,213,4.0,9.0,21,0.00,,,0.00,388.000000,,2013-11-10 23:00:00,
2013-11-10 16:22:00,60.0,20.0,-100.00,SSW,213,4.0,9.0,21,0.00,,,0.00,388.000000,,2013-11-10 23:22:00,
2013-11-10 16:34:00,60.0,20.0,-100.00,SSW,213,4.0,9.0,21,0.00,,,0.00,388.000000,,2013-11-10 23:34:00,
2013-11-10 16:43:00,60.0,20.0,-100.00,SSW,213,4.0,9.0,21,0.00,,,0.00,388.000000,,2013-11-10 23:43:00,
2013-11-10 16:53:00,60.0,20.0,-100.00,SSW,213,4.0,9.0,21,0.00,,,0.00,388.000000,,2013-11-10 23:53:00,
2013-11-10 17:00:00,56.0,20.0,-100.00,SSW,209,4.0,7.0,24,0.00,,,0.00,173.000000,,2013-11-11 00:00:00,
2013-11-10 17:22:00,56.0,20.0,-100.00,SSW,209,4.0,7.0,24,0.00,,,0.00,173.000000,,2013-11-11 00:22:00,
2013-11-10 17:32:00,56.0,20.0,-100.00,SSW,209,4.0,7.0,24,0.00,,,0.00,173.000000,,2013-11-11 00:32:00,
2013-11-10 17:42:00,56.0,20.0,-100.00,SSW,209,4.0,7.0,24,0.00,,,0.00,173.000000,,2013-11-11 00:42:00,
2013-11-10 17:52:00,56.0,20.0,-100.00,SSW,209,4.0,7.0,24,0.00,,,0.00,173.000000,,2013-11-11 00:52:00,
2013-11-10 18:00:00,50.0,19.0,-100.00,SSW,207,5.0,8.0,29,0.00,,,0.00,7.000000,,2013-11-11 01:00:00,
2013-11-10 18:22:00,50.0,19.0,-100.00,SSW,207,5.0,8.0,29,0.00,,,0.00,7.000000,,2013-11-11 01:22:00,
2013-11-10 18:32:00,50.0,19.0,-100.00,SSW,207,5.0,8.0,29,0.00,,,0.00,7.000000,,2013-11-11 01:32:00,
2013-11-10 18:42:00,50.0,19.0,-100.00,SSW,207,5.0,8.0,29,0.00,,,0.00,7.000000,,2013-11-11 01:42:00,
2013-11-10 18:52:00,50.0,19.0,-100.00,SSW,207,5.0,8.0,29,0.00,,,0.00,7.000000,,2013-11-11 01:52:00,
2013-11-10 19:00:00,47.0,19.0,-100.00,South,190,3.0,7.0,33,0.00,,,0.00,0.000000,,2013-11-11 02:00:00,
2013-11-10 19:22:00,47.0,19.0,-100.00,South,190,3.0,7.0,33,0.00,,,0.00,0.000000,,2013-11-11 02:22:00,
2013-11-10 19:32:00,47.0,19.0,-100.00,South,190,3.0,7.0,33,0.00,,,0.00,0.000000,,2013-11-11 02:32:00,
2013-11-10 19:42:00,47.0,19.0,-100.00,South,190,3.0,7.0,33,0.00,,,0.00,0.000000,,2013-11-11 02:42:00,
2013-11-10 19:52:00,47.0,19.0,-100.00,South,190,3.0,7.0,33,0.00,,,0.00,0.000000,,2013-11-11 02:52:00,
2013-11-10 20:00:00,45.0,20.0,-100.00,South,174,1.0,3.0,36,0.00,,,0.00,0.000000,,2013-11-11 03:00:00,
2013-11-10 20:43:00,45.0,20.0,-100.00,South,174,1.0,3.0,36,0.00,,,0.00,0.000000,,2013-11-11 03:43:00,
2013-11-10 20:55:00,45.0,20.0,-100.00,South,174,1.0,3.0,36,0.00,,,0.00,0.000000,,2013-11-11 03:55:00,
2013-11-10 21:00:00,45.0,20.0,-100.00,SSE,159,3.0,4.0,36,0.00,,,0.00,0.000000,,2013-11-11 04:00:00,
2013-11-10 21:24:00,45.0,20.0,-100.00,SSE,159,3.0,4.0,36,0.00,,,0.00,0.000000,,2013-11-11 04:24:00,
2013-11-10 21:34:00,45.0,20.0,-100.00,SSE,159,3.0,4.0,36,0.00,,,0.00,0.000000,,2013-11-11 04:34:00,
2013-11-10 21:43:00,45.0,20.0,-100.00,SSE,159,3.0,4.0,36,0.00,,,0.00,0.000000,,2013-11-11 04:43:00,
2013-11-10 21:53:00,45.0,20.0,-100.00,SSE,159,3.0,4.0,36,0.00,,,0.00,0.000000,,2013-11-11 04:53:00,
2013-11-10 22:00:00,44.0,18.0,-100.00,SSE,160,3.0,5.0,35,0.00,,,0.00,0.000000,,2013-11-11 05:00:00,
2013-11-10 22:43:00,44.0,18.0,-100.00,SSE,160,3.0,5.0,35,0.00,,,0.00,0.000000,,2013-11-11 05:43:00,
2013-11-10 22:54:00,44.0,18.0,-100.00,SSE,160,3.0,5.0,35,0.00,,,0.00,0.000000,,2013-11-11 05:54:00,
2013-11-10 23:00:00,43.0,14.0,-100.00,South,184,0.0,4.0,30,0.00,,,0.00,0.000000,,2013-11-11 06:00:00,
2013-11-10 23:42:00,43.0,14.0,-100.00,South,184,0.0,4.0,30,0.00,,,0.00,0.000000,,2013-11-11 06:42:00,
2013-11-10 23:52:00,43.0,14.0,-100.00,South,184,0.0,4.0,30,0.00,,,0.00,0.000000,,2013-11-11 06:52:00,